AirNav   Everest Fuels
 
 842 users online  

8FL8 Jacksonville Police Heliport
Jacksonville, Florida, USA

GOING TO JACKSONVILLE?


FAA INFORMATION EFFECTIVE 10 SEPTEMBER 2020

Location

FAA Identifier: 8FL8
Lat/Long: 30-19-30.8620N 081-39-04.3420W
30-19.514367N 081-39.072367W
30.3252394,-81.6512061
(estimated)
Elevation: 77 ft. / 23 m (estimated)
Variation: 03W (1985)
Time zone: UTC -4 (UTC -5 during Standard Time)
Zip code: 32202

Heliport Operations

Heliport use: Private use. Permission required prior to landing
Activation date: 01/1980
Control tower: no
ARTCC: JACKSONVILLE CENTER
FSS: GAINESVILLE FLIGHT SERVICE STATION
Attendance: UNATNDD
Wind indicator: yes
Segmented circle: yes

Heliport Communications

WX ASOS at CRG (7 nm E): PHONE 904-646-4670
WX AWOS-3 at HEG (9 nm W): 119.275 (904-695-0334)
WX ASOS at JAX (10 nm N): 125.85 (904-741-4304)
WX AWOS-3 at VQQ (13 nm SW): 125.275 (904-778-6934)
WX AWOS-3 at FHB (20 nm NE): 118.075 (904-277-7323)

Nearby radio navigation aids

VOR radial/distance  VOR name  Freq  Var
CRGr267/7.4CRAIG VORTAC114.5003W
VQQr065/(14.1)CECIL VOR117.9003W
SGJr329/27.7ST AUGUSTINE VOR/DME109.4006W

 
NDB name  Hdg/Dist  Freq  Var  ID
DINNS143/11.434406WJA .--- .-
REYNOLDS008/21.533807WRYD .-. -.-- -..

Heliport Services

Runway Information

Helipad H1

Dimensions: 80 x 80 ft. / 24 x 24 m
Surface: concrete, in fair condition
ROOFTOP
Latitude: 30-19.514367N
Longitude: 081-39.072367W
Elevation: 77.0 ft.
Traffic pattern: leftleft
Markings: none, in fair condition

Heliport Ownership and Management from official FAA records

Ownership: Publicly-owned
Owner: OFFICE OF THE SHERIFF
501 E BAY ST
JACKSONVILLE, FL 32202
Phone 904-633-4055
Manager: ROBERT H. HIGHFILL, JR.
501 E BAY ST, 501 E BAY ST
JACKSONVILLE, FL 32202
Phone 904-642-0422

Heliport Operational Statistics

Aircraft based on the field: 7
Single engine airplanes: 1
Multi engine airplanes: 2
Helicopters: 4
    

Additional Remarks

MAINTENANCE SUPER - RONALD BATTLES - 904-642-0422 - RONALD.BATTLES@JAXSHERIFF.ORG
FOR CD CTC JACKSONVILLE APCH AT 904-741-0284.

Instrument Procedures

There are no published instrument procedures at 8FL8.

Some nearby airports with instrument procedures:

KNIP - Jacksonville Naval Air Station (Towers Field) (6 nm S)
KCRG - Jacksonville Executive Airport at Craig (7 nm E)
KHEG - Herlong Recreational Airport (9 nm W)
KJAX - Jacksonville International Airport (10 nm N)
KNRB - Mayport Naval Station (Adm David L. McDonald Field) (12 nm E)
KVQQ - Cecil Airport (13 nm SW)
KFHB - Fernandina Beach Municipal Airport (20 nm NE)
 
Loc | Ops | Rwys | IFR | FBO | Links
Com | Nav | Svcs | Stats | Notes
Area around 8FL8 (Jacksonville Police Heliport)
 
Road maps at: MapQuest Bing Google
 
Aerial photo
No photo
 
Sectional chart

 
Airport distance calculator
Flying to Jacksonville Police Heliport? Find the distance to fly.

From to 8FL8

Sunrise and sunset
Times for 21-Sep-2020
 Local
(UTC-4)
 Zulu
(UTC)
Morning civil twilight06:5210:52
Sunrise07:1611:16
Sunset19:2323:23
Evening civil twilight19:4723:47

Current date and time
Zulu (UTC)  22-Sep-2020 03:34:17
Local (UTC-4)  21-Sep-2020 23:34:17
 
METAR
KNIP 
7nm S 
220253Z 04015G25KT 10SM FEW030 BKN040 OVC075 23/19 A3017 RMK AO2 SLP213 T02330189 51003
KCRG 
7nm E 
220253Z 05020G26KT 10SM FEW030 BKN039 OVC070 24/18 A3017 RMK AO2 PK WND 05028/0222 SLP215 T02390183 50002
KHEG 
9nm W 
220315Z AUTO 04010G20KT 8SM SCT026 OVC032 23/18 A3019 RMK AO2
KJAX 
11nm N 
220256Z 05013G21KT 10SM FEW032 BKN044 BKN250 22/18 A3017 RMK AO2 SLP216 T02220178 50001
KNRB 
13nm E 
220252Z 05021G30KT 10SM SCT027 BKN041 OVC049 23/19 A3017 RMK AO2 PK WND 05034/0211 SLP215 T02330189 51006
KVQQ 
14nm SW 
220315Z AUTO 03007G15KT 10SM BKN026 OVC037 23/18 A3017 RMK AO2
KFHB 
20nm NE 
220315Z AUTO 05021G27KT 10SM SCT028 SCT035 OVC065 23/18 A3018 RMK AO2 T02310179
TAF
KNIP 
7nm S 
2123/2223 05018G28KT 9999 VCSH FEW020 BKN035 BKN150 BKN250 QNH3012INS FM220400 06013G22KT 9999 SCT015 BKN030 BKN050 BKN250 QNH3010INS TEMPO 2204/2209 BKN020 OVC040 FM221400 06010G20KT 9999 SCT020 BKN040 BKN100 QNH3012INS T22/2211Z T27/2218Z FN20076
KCRG 
7nm E 
220148Z 2202/2224 04014G22KT P6SM VCSH SCT028 BKN035 OVC045 TEMPO 2202/2205 6SM SHRA BR OVC025 FM220500 04012KT P6SM SCT020 BKN030 FM221400 05014G22KT P6SM SCT025 BKN050 FM222200 05012G18KT P6SM FEW030 BKN070
KJAX 
11nm N 
211859Z 2119/2218 04017G27KT P6SM VCSH BKN023 OVC045 TEMPO 2121/2124 SCT025 BKN040 FM220200 05011KT P6SM BKN025 OVC040 FM221400 06014G22KT P6SM OVC050
KNRB 
13nm E 
2123/2223 05020G35KT 9999 VCSH BKN035 BKN080 OVC250 QNH3012INS FM220400 06022G28KT 9999 VCSH FEW015 BKN030 OVC100 QNH3010INS TEMPO 2208/2214 6000 -DZ BR BKN020 OVC080 FM221400 06015G20KT 9999 SCT020 BKN080 QNH3008INS AUTOMATED SENSOR METWATCH 2204 TIL 2209 T23/2211Z T26/2218Z COR 2350 FN20077
KVQQ 
14nm SW 
211727Z 2118/2218 03014G24KT P6SM VCSH SCT015 BKN025 TEMPO 2118/2120 BKN015 FM220200 05011KT P6SM BKN025 OVC040 FM221500 05013G21KT P6SM OVC050
NOTAMs
Click for the latest NOTAMs
NOTAMs are issued by the DoD/FAA and will open in a separate window not controlled by AirNav.

 

 
 

Would you like to see your business listed on this page?

 If your business provides an interesting product or service to pilots, flight crews, aircraft, or users of the Jacksonville Police Heliport, you should consider listing it here.  To start the listing process, click on the button below
 
Add a business
 

Other Pages about Jacksonville Police Heliport

Update a link
 
Copyright © AirNav, LLC. All rights reserved. Privacy Policy  Contact